createdAt,value
2019-03-28T00:01:16.096Z,97485.37
2019-03-28T00:03:50.225Z,97486.56
2019-03-28T00:06:23.295Z,97485.29
2019-03-28T00:08:55.465Z,97490.17
2019-03-28T00:11:30.268Z,97486.23
2019-03-28T00:14:02.261Z,97483.50
2019-03-28T00:16:35.729Z,97479.30
2019-03-28T00:19:09.280Z,97480.89
2019-03-28T00:21:41.682Z,97473.47
2019-03-28T00:24:33.228Z,97476.98
2019-03-28T00:27:05.703Z,97476.37
2019-03-28T00:29:39.274Z,97476.06
2019-03-28T00:32:11.565Z,97476.95
2019-03-28T00:34:44.214Z,97475.09
2019-03-28T00:37:19.036Z,97477.13
2019-03-28T00:39:55.137Z,97479.84
2019-03-28T00:42:29.886Z,97477.53
2019-03-28T00:45:02.490Z,97475.34
2019-03-28T00:47:36.231Z,97479.82
2019-03-28T00:50:09.628Z,97475.75
2019-03-28T00:52:44.867Z,97477.07
2019-03-28T00:55:17.364Z,97471.45
2019-03-28T00:57:50.409Z,97473.33
2019-03-28T01:00:22.929Z,97471.94
2019-03-28T01:02:58.132Z,97467.36
2019-03-28T01:05:32.501Z,97461.06
2019-03-28T01:08:06.079Z,97465.97
2019-03-28T01:10:38.553Z,97470.34
2019-03-28T01:13:12.545Z,97470.11
2019-03-28T01:15:44.420Z,97470.94
2019-03-28T01:18:17.969Z,97468.57
2019-03-28T01:20:51.223Z,97475.45
2019-03-28T01:23:23.152Z,97473.02
2019-03-28T01:25:55.743Z,97473.38
2019-03-28T01:28:29.717Z,97481.04
2019-03-28T01:31:02.726Z,97478.25
2019-03-28T01:33:35.676Z,97472.88
2019-03-28T01:36:08.657Z,97472.91
2019-03-28T01:38:41.721Z,97474.72
2019-03-28T01:41:14.606Z,97474.68
2019-03-28T01:43:48.014Z,97469.09
2019-03-28T01:46:22.694Z,97470.15
2019-03-28T01:48:56.677Z,97469.31
2019-03-28T01:51:29.749Z,97465.06
2019-03-28T01:54:03.347Z,97457.24
2019-03-28T01:56:36.786Z,97463.11
2019-03-28T01:59:09.709Z,97456.15
2019-03-28T02:01:43.722Z,97452.62
2019-03-28T02:04:18.076Z,97456.84
2019-03-28T02:06:51.020Z,97453.11
2019-03-28T02:09:23.325Z,97451.41
2019-03-28T02:11:56.745Z,97450.63
2019-03-28T02:14:30.060Z,97449.08
2019-03-28T02:17:03.816Z,97446.16
2019-03-28T02:19:36.059Z,97443.48
2019-03-28T02:22:09.975Z,97440.95
2019-03-28T02:24:41.863Z,97453.98
2019-03-28T02:27:23.984Z,97449.89
2019-03-28T02:29:50.992Z,97447.80
2019-03-28T02:32:23.816Z,97449.38
2019-03-28T02:34:56.883Z,97447.28
2019-03-28T02:37:30.547Z,97447.45
2019-03-28T02:40:02.932Z,97454.81
2019-03-28T02:42:36.987Z,97444.27
2019-03-28T02:45:12.946Z,97438.45
2019-03-28T02:47:46.315Z,97445.28
2019-03-28T02:50:27.469Z,97447.84
2019-03-28T02:53:00.810Z,97447.51
2019-03-28T02:59:00.610Z,97451.45
2019-03-28T03:01:34.845Z,97455.13
2019-03-28T03:04:09.254Z,97456.52
2019-03-28T03:06:44.595Z,97461.11
2019-03-28T03:09:17.756Z,97461.54
2019-03-28T03:11:51.123Z,97462.94
2019-03-28T03:14:24.090Z,97463.92
2019-03-28T03:16:59.745Z,97466.69
2019-03-28T03:19:33.726Z,97464.92
2019-03-28T03:22:06.109Z,97462.47
2019-03-28T03:24:39.489Z,97464.19
2019-03-28T03:27:14.231Z,97457.84
2019-03-28T03:29:48.265Z,97460.49
2019-03-28T03:32:21.097Z,97459.81
2019-03-28T03:34:54.218Z,97456.61
2019-03-28T03:37:29.869Z,97458.77
2019-03-28T03:40:05.778Z,97459.26
2019-03-28T03:42:38.426Z,97462.67
2019-03-28T03:45:14.471Z,97461.48
2019-03-28T03:47:48.117Z,97467.95
2019-03-28T03:50:29.451Z,97466.69
2019-03-28T03:53:03.203Z,97463.63
2019-03-28T03:55:36.024Z,97463.42
2019-03-28T03:58:15.980Z,97464.97
2019-03-28T04:00:46.810Z,97474.77
2019-03-28T04:03:21.979Z,97473.27
2019-03-28T04:05:56.244Z,97470.63
2019-03-28T04:08:30.912Z,97467.18
2019-03-28T04:11:11.297Z,97466.69
2019-03-28T04:13:44.276Z,97469.13
2019-03-28T04:16:19.399Z,97465.27
2019-03-28T04:18:52.285Z,97461.93
2019-03-28T04:21:24.837Z,97464.91
2019-03-28T04:24:00.850Z,97466.19
2019-03-28T04:26:35.321Z,97463.92
2019-03-28T04:29:09.270Z,97470.95
2019-03-28T04:31:43.500Z,97472.55
2019-03-28T04:34:17.698Z,97472.39
2019-03-28T04:36:49.712Z,97465.63
2019-03-28T04:39:23.369Z,97466.55
2019-03-28T04:41:55.405Z,97469.45
2019-03-28T04:44:29.392Z,97464.25
2019-03-28T04:47:02.416Z,97469.83
2019-03-28T04:49:35.611Z,97463.25
2019-03-28T04:52:09.139Z,97460.94
2019-03-28T04:54:41.665Z,97460.97
2019-03-28T04:57:15.082Z,97465.89
2019-03-28T04:59:47.536Z,97468.16
2019-03-28T05:02:22.545Z,97473.69
2019-03-28T05:04:58.096Z,97475.41
2019-03-28T05:07:34.195Z,97476.19
2019-03-28T05:10:08.177Z,97472.27
2019-03-28T05:12:43.341Z,97473.98
2019-03-28T05:15:20.142Z,97471.48
2019-03-28T05:17:55.255Z,97468.47
2019-03-28T05:20:29.762Z,97475.95
2019-03-28T05:23:02.886Z,97479.18
2019-03-28T05:25:35.762Z,97479.64
2019-03-28T05:28:09.030Z,97483.36
2019-03-28T05:30:41.770Z,97485.56
2019-03-28T05:33:15.770Z,97487.13
2019-03-28T05:35:47.653Z,97483.09
2019-03-28T05:38:19.653Z,97487.57
2019-03-28T05:40:53.956Z,97488.45
2019-03-28T05:43:27.062Z,97491.90
2019-03-28T05:46:00.842Z,97488.16
2019-03-28T05:48:33.629Z,97483.80
2019-03-28T05:51:07.665Z,97489.30
2019-03-28T05:53:44.002Z,97486.91
2019-03-28T05:56:18.189Z,97488.77
2019-03-28T05:58:50.910Z,97491.91
2019-03-28T06:01:23.408Z,97490.88
2019-03-28T06:03:58.675Z,97489.84
2019-03-28T06:06:33.001Z,97493.92
2019-03-28T06:09:08.318Z,97496.28
2019-03-28T06:11:41.948Z,97498.55
2019-03-28T06:14:14.964Z,97494.42
2019-03-28T06:16:48.870Z,97499.29
2019-03-28T06:19:20.821Z,97497.18
2019-03-28T06:21:53.826Z,97496.72
2019-03-28T06:24:27.269Z,97501.53
2019-03-28T06:27:01.908Z,97495.66
2019-03-28T06:29:36.336Z,97497.64
2019-03-28T06:32:08.880Z,97500.56
2019-03-28T06:34:42.050Z,97506.24
2019-03-28T06:37:15.039Z,97504.38
2019-03-28T06:39:47.838Z,97504.38
2019-03-28T06:42:20.895Z,97508.14
2019-03-28T06:44:53.947Z,97502.21
2019-03-28T06:47:28.594Z,97503.48
2019-03-28T06:50:02.455Z,97506.59
2019-03-28T06:52:37.774Z,97514.63
2019-03-28T06:55:10.327Z,97507.23
2019-03-28T06:57:46.938Z,97497.44
2019-03-28T07:00:20.195Z,97491.44
2019-03-28T07:02:52.716Z,97491.06
2019-03-28T07:05:27.000Z,97498.45
2019-03-28T07:08:02.770Z,97505.34
2019-03-28T07:10:36.824Z,97500.23
2019-03-28T07:13:12.608Z,97498.14
2019-03-28T07:15:46.638Z,97498.28
2019-03-28T07:18:20.336Z,97498.28
2019-03-28T07:20:54.119Z,97496.09
2019-03-28T07:23:27.108Z,97499.27
2019-03-28T07:26:02.728Z,97495.08
2019-03-28T07:28:37.845Z,97495.52
2019-03-28T07:31:13.156Z,97499.81
2019-03-28T07:33:46.478Z,97501.01
2019-03-28T07:36:18.926Z,97499.34
2019-03-28T07:38:51.987Z,97497.33
2019-03-28T07:41:25.414Z,97498.27
2019-03-28T07:43:58.997Z,97500.31
2019-03-28T07:46:34.218Z,97500.64
2019-03-28T07:49:07.282Z,97495.10
2019-03-28T07:51:41.171Z,97492.16
2019-03-28T07:54:13.408Z,97497.31
2019-03-28T07:56:47.198Z,97501.97
2019-03-28T07:59:20.325Z,97502.86
2019-03-28T08:01:53.141Z,97492.45
2019-03-28T08:04:27.250Z,97497.90
2019-03-28T08:07:01.638Z,97493.78
2019-03-28T08:09:36.794Z,97493.08
2019-03-28T08:12:21.846Z,97494.22
2019-03-28T08:14:45.597Z,97488.98
2019-03-28T08:17:22.369Z,97493.29
2019-03-28T08:19:54.418Z,97486.88
2019-03-28T08:22:29.638Z,97488.77
2019-03-28T08:25:01.562Z,97485.73
2019-03-28T08:27:35.275Z,97501.75
2019-03-28T08:30:18.184Z,97494.66
2019-03-28T08:32:45.783Z,97491.54
2019-03-28T08:35:18.366Z,97492.40
2019-03-28T08:37:51.481Z,97490.30
2019-03-28T08:40:39.633Z,97491.44
2019-03-28T08:43:12.361Z,97494.67
2019-03-28T08:45:45.624Z,97492.20
2019-03-28T08:48:19.012Z,97490.64
2019-03-28T08:50:53.279Z,97489.38
2019-03-28T08:53:27.447Z,97485.63
2019-03-28T08:55:59.444Z,97485.38
2019-03-28T08:58:38.026Z,97485.77
2019-03-28T09:04:01.348Z,97484.86
2019-03-28T09:06:34.983Z,97482.67
2019-03-28T09:09:11.407Z,97487.23
2019-03-28T09:11:46.535Z,97492.61
2019-03-28T09:14:20.420Z,97487.02
2019-03-28T09:16:55.472Z,97485.30
2019-03-28T09:22:20.673Z,97485.41
2019-03-28T09:24:54.772Z,97487.08
2019-03-28T09:27:26.516Z,97478.93
2019-03-28T09:30:00.654Z,97481.84
2019-03-28T09:32:34.076Z,97476.69
2019-03-28T09:35:08.694Z,97477.44
2019-03-28T09:37:44.743Z,97469.87
2019-03-28T09:40:18.482Z,97474.20
2019-03-28T09:42:52.049Z,97466.64
2019-03-28T09:45:23.988Z,97455.00
2019-03-28T09:47:59.036Z,97451.84
2019-03-28T09:50:33.804Z,97443.66
2019-03-28T09:53:07.526Z,97452.69
2019-03-28T09:55:43.062Z,97448.63
2019-03-28T09:58:14.770Z,97452.73
2019-03-28T10:01:01.615Z,97445.33
2019-03-28T10:03:22.160Z,97445.05
2019-03-28T10:05:55.890Z,97450.06
2019-03-28T10:08:28.146Z,97458.38
2019-03-28T10:11:02.943Z,97455.25
2019-03-28T10:13:35.890Z,97456.23
2019-03-28T10:16:09.977Z,97457.70
2019-03-28T10:18:44.547Z,97454.03
2019-03-28T10:21:18.878Z,97451.47
2019-03-28T10:23:50.882Z,97460.17
2019-03-28T10:26:23.783Z,97452.36
2019-03-28T10:28:56.866Z,97450.90
2019-03-28T10:31:29.999Z,97442.16
2019-03-28T10:34:03.551Z,97435.00
2019-03-28T10:36:38.642Z,97438.24
2019-03-28T10:39:11.834Z,97433.77
2019-03-28T10:41:44.087Z,97431.08
2019-03-28T10:44:19.824Z,97429.09
2019-03-28T10:46:54.147Z,97437.89
2019-03-28T10:49:28.632Z,97439.55
2019-03-28T10:52:03.965Z,97442.14
2019-03-28T10:54:35.223Z,97436.77
2019-03-28T10:57:13.485Z,97443.11
2019-03-28T10:59:42.572Z,97439.36
2019-03-28T11:02:17.237Z,97436.17
2019-03-28T11:04:51.264Z,97434.45
2019-03-28T11:07:23.045Z,97434.03
2019-03-28T11:09:57.810Z,97437.81
2019-03-28T11:12:30.362Z,97438.48
2019-03-28T11:15:04.909Z,97432.61
2019-03-28T11:17:39.284Z,97432.47
2019-03-28T11:20:11.660Z,97421.09
2019-03-28T11:22:47.322Z,97418.88
2019-03-28T11:25:21.453Z,97420.30
2019-03-28T11:27:55.976Z,97418.56
2019-03-28T11:30:31.284Z,97411.67
2019-03-28T11:33:06.529Z,97416.08
2019-03-28T11:35:41.012Z,97423.93
2019-03-28T11:38:15.022Z,97416.55
2019-03-28T11:40:48.304Z,97411.41
2019-03-28T11:43:22.590Z,97416.02
2019-03-28T11:45:58.256Z,97419.73
2019-03-28T11:48:30.411Z,97426.48
2019-03-28T11:51:07.901Z,97426.48
2019-03-28T11:53:42.291Z,97419.24
2019-03-28T11:56:17.200Z,97423.89
2019-03-28T11:58:49.339Z,97410.31
2019-03-28T12:01:22.835Z,97414.19
2019-03-28T12:03:57.921Z,97414.23
2019-03-28T12:06:30.694Z,97414.63
2019-03-28T12:09:04.585Z,97411.34
2019-03-28T12:11:37.897Z,97405.47
2019-03-28T12:14:12.308Z,97415.73
2019-03-28T12:16:45.719Z,97414.80
2019-03-28T12:19:22.130Z,97417.94
2019-03-28T12:21:55.402Z,97414.80
2019-03-28T12:24:27.344Z,97410.70
2019-03-28T12:27:00.320Z,97414.70
2019-03-28T12:29:35.946Z,97410.88
2019-03-28T12:32:14.304Z,97405.27
2019-03-28T12:34:43.763Z,97401.04
2019-03-28T12:37:17.441Z,97407.36
2019-03-28T12:39:52.011Z,97397.66
2019-03-28T12:42:24.266Z,97391.78
2019-03-28T12:44:57.620Z,97390.98
2019-03-28T12:47:42.257Z,97383.83
2019-03-28T12:50:08.643Z,97385.76
2019-03-28T12:52:46.476Z,97387.46
2019-03-28T12:55:20.456Z,97386.02
2019-03-28T12:57:52.484Z,97387.55
2019-03-28T13:00:35.963Z,97385.42
2019-03-28T13:03:14.190Z,97382.38
2019-03-28T13:05:49.825Z,97382.81
2019-03-28T13:08:21.780Z,97313.71
2019-03-28T13:10:54.788Z,97387.88
2019-03-28T13:13:27.683Z,97386.47
2019-03-28T13:16:02.123Z,97377.98
2019-03-28T13:18:36.764Z,97383.40
2019-03-28T13:21:13.891Z,97384.30
2019-03-28T13:23:45.810Z,97378.53
2019-03-28T13:26:18.567Z,97383.02
2019-03-28T13:28:51.762Z,97387.79
2019-03-28T13:31:23.953Z,97385.94
2019-03-28T13:33:58.746Z,97378.15
2019-03-28T13:36:32.805Z,97377.17
2019-03-28T13:39:08.188Z,97373.47
2019-03-28T13:41:44.424Z,97376.45
2019-03-28T13:44:19.598Z,97374.14
2019-03-28T13:46:52.783Z,97379.61
2019-03-28T13:49:24.592Z,97377.73
2019-03-28T13:51:59.057Z,97391.00
2019-03-28T13:54:31.110Z,97383.55
2019-03-28T13:57:05.610Z,97387.36
2019-03-28T13:59:39.727Z,97384.20
2019-03-28T14:02:13.765Z,97378.31
2019-03-28T14:04:47.843Z,97372.47
2019-03-28T14:07:22.853Z,97384.91
2019-03-28T14:09:55.407Z,97374.42
2019-03-28T14:12:27.949Z,97379.56
2019-03-28T14:15:00.982Z,97377.95
2019-03-28T14:17:35.070Z,97368.91
2019-03-28T14:20:08.509Z,97375.39
2019-03-28T14:22:46.161Z,97372.37
2019-03-28T14:25:19.790Z,97372.08
2019-03-28T14:27:52.217Z,97377.41
2019-03-28T14:30:24.322Z,97382.81
2019-03-28T14:33:10.652Z,97380.95
2019-03-28T14:35:33.998Z,97379.78
2019-03-28T14:38:06.995Z,97379.59
2019-03-28T14:40:39.226Z,97377.03
2019-03-28T14:43:14.558Z,97376.25
2019-03-28T14:45:48.966Z,97374.66
2019-03-28T14:48:22.358Z,97371.10
2019-03-28T14:50:57.144Z,97375.20
2019-03-28T14:53:31.216Z,97376.48
2019-03-28T14:56:05.368Z,97376.49
2019-03-28T14:58:42.023Z,97376.59
2019-03-28T15:01:16.571Z,97377.52
2019-03-28T15:03:51.972Z,97376.14
2019-03-28T15:06:24.719Z,97374.31
2019-03-28T15:09:00.894Z,97368.78
2019-03-28T15:11:33.839Z,97378.83
2019-03-28T15:14:07.091Z,97378.89
2019-03-28T15:16:40.251Z,97377.57
2019-03-28T15:19:13.552Z,97384.47
2019-03-28T15:21:46.240Z,97382.36
2019-03-28T15:24:22.078Z,97383.27
2019-03-28T15:26:56.101Z,97387.97
2019-03-28T15:29:29.066Z,97389.44
2019-03-28T15:32:03.321Z,97326.70
2019-03-28T15:34:36.281Z,97391.60
2019-03-28T15:37:11.896Z,97389.61
2019-03-28T15:39:44.263Z,97386.70
2019-03-28T15:42:16.222Z,97391.51
2019-03-28T15:44:51.049Z,97394.94
2019-03-28T15:47:24.574Z,97395.46
2019-03-28T15:49:58.361Z,97396.31
2019-03-28T15:52:31.742Z,97398.38
2019-03-28T15:55:07.546Z,97400.68
2019-03-28T15:57:44.326Z,97404.50
2019-03-28T16:00:18.888Z,97399.02
2019-03-28T16:02:52.817Z,97402.53
2019-03-28T16:05:24.698Z,97395.80
2019-03-28T16:07:59.318Z,97396.75
2019-03-28T16:10:33.296Z,97397.02
2019-03-28T16:13:06.308Z,97402.65
2019-03-28T16:15:39.473Z,97401.31
2019-03-28T16:18:13.682Z,97406.02
2019-03-28T16:20:53.271Z,97411.64
2019-03-28T16:23:23.457Z,97414.92
2019-03-28T16:25:57.375Z,97412.78
2019-03-28T16:28:30.499Z,97418.59
2019-03-28T16:31:03.459Z,97421.21
2019-03-28T16:33:36.594Z,97419.30
2019-03-28T16:36:09.555Z,97416.03
2019-03-28T16:38:44.223Z,97418.70
2019-03-28T16:41:16.567Z,97414.32
2019-03-28T16:43:49.498Z,97409.73
2019-03-28T16:46:21.490Z,97413.41
2019-03-28T16:48:54.817Z,97418.66
2019-03-28T16:51:27.689Z,97415.52
2019-03-28T16:54:00.023Z,97419.98
2019-03-28T16:56:33.666Z,97419.00
2019-03-28T16:59:06.517Z,97426.20
2019-03-28T17:01:40.288Z,97428.14
2019-03-28T17:04:20.768Z,97435.30
2019-03-28T17:06:47.600Z,97428.14
2019-03-28T17:09:24.142Z,97438.13
2019-03-28T17:11:57.575Z,97436.52
2019-03-28T17:14:31.055Z,97438.35
2019-03-28T17:17:03.848Z,97438.97
2019-03-28T17:19:36.800Z,97437.47
2019-03-28T17:22:09.696Z,97446.86
2019-03-28T17:24:43.945Z,97444.00
2019-03-28T17:27:17.722Z,97452.12
2019-03-28T17:29:50.721Z,97454.95
2019-03-28T17:32:22.672Z,97455.09
2019-03-28T17:34:55.126Z,97460.70
2019-03-28T17:37:27.909Z,97464.01
2019-03-28T17:40:00.718Z,97464.37
2019-03-28T17:42:33.739Z,97459.95
2019-03-28T17:45:07.076Z,97456.59
2019-03-28T17:47:40.418Z,97461.80
2019-03-28T17:50:13.122Z,97465.46
2019-03-28T17:52:46.649Z,97472.26
2019-03-28T17:55:19.976Z,97475.61
2019-03-28T17:57:53.940Z,97477.52
2019-03-28T18:00:28.368Z,97477.41
2019-03-28T18:03:09.206Z,97475.19
2019-03-28T18:05:36.903Z,97482.17
2019-03-28T18:08:09.890Z,97479.09
2019-03-28T18:10:44.448Z,97475.00
2019-03-28T18:13:18.763Z,97478.84
2019-03-28T18:15:51.893Z,97487.66
2019-03-28T18:22:03.764Z,97486.39
2019-03-28T18:24:33.971Z,97489.27
2019-03-28T18:27:06.140Z,97500.78
2019-03-28T18:29:40.139Z,97502.25
2019-03-28T18:32:12.983Z,97495.94
2019-03-28T18:34:46.159Z,97505.62
2019-03-28T18:37:20.590Z,97514.19
2019-03-28T18:39:54.951Z,97518.79
2019-03-28T18:42:28.610Z,97516.83
2019-03-28T18:45:02.872Z,97517.86
2019-03-28T18:47:37.135Z,97517.94
2019-03-28T18:50:10.835Z,97517.80
2019-03-28T18:52:44.847Z,97521.28
2019-03-28T18:55:20.659Z,97514.88
2019-03-28T18:57:52.406Z,97509.97
2019-03-28T19:00:26.209Z,97516.09
2019-03-28T19:02:59.583Z,97516.70
2019-03-28T19:05:35.919Z,97516.75
2019-03-28T19:08:10.679Z,97517.82
2019-03-28T19:10:44.393Z,97517.38
2019-03-28T19:13:16.222Z,97508.78
2019-03-28T19:15:49.951Z,97513.39
2019-03-28T19:18:22.084Z,97510.72
2019-03-28T19:20:55.115Z,97511.63
2019-03-28T19:23:28.261Z,97519.75
2019-03-28T19:26:01.259Z,97521.47
2019-03-28T19:28:34.234Z,97525.38
2019-03-28T19:31:08.551Z,97524.10
2019-03-28T19:33:43.933Z,97525.97
2019-03-28T19:36:20.562Z,97524.76
2019-03-28T19:38:56.984Z,97528.24
2019-03-28T19:41:33.876Z,97526.05
2019-03-28T19:44:09.925Z,97528.85
2019-03-28T19:46:45.053Z,97526.38
2019-03-28T19:49:17.740Z,97532.29
2019-03-28T19:51:50.383Z,97536.89
2019-03-28T19:54:23.385Z,97532.45
2019-03-28T19:56:57.568Z,97529.14
2019-03-28T19:59:31.397Z,97524.55
2019-03-28T20:02:05.739Z,97530.42
2019-03-28T20:05:22.858Z,97527.09
2019-03-28T20:07:57.459Z,97520.92
2019-03-28T20:10:31.801Z,97521.45
2019-03-28T20:13:05.381Z,97524.41
2019-03-28T20:15:40.384Z,97528.33
2019-03-28T20:18:13.820Z,97525.45
2019-03-28T20:20:46.931Z,97533.86
2019-03-28T20:23:19.605Z,97531.45
2019-03-28T20:25:52.417Z,97534.52
2019-03-28T20:28:26.942Z,97540.36
2019-03-28T20:30:59.583Z,97539.60
2019-03-28T20:33:31.514Z,97549.82
2019-03-28T20:36:24.631Z,97537.51
2019-03-28T20:38:39.563Z,97549.17
2019-03-28T20:41:14.814Z,97548.51
2019-03-28T20:43:49.602Z,97549.55
2019-03-28T20:46:21.717Z,97554.99
2019-03-28T20:48:55.447Z,97553.08
2019-03-28T20:51:28.540Z,97556.95
2019-03-28T20:54:03.777Z,97557.11
2019-03-28T20:56:38.470Z,97559.44
2019-03-28T20:59:12.650Z,97558.83
2019-03-28T21:01:48.037Z,97556.63
2019-03-28T21:04:31.055Z,97560.26
2019-03-28T21:06:57.860Z,97561.30
2019-03-28T21:09:33.323Z,97567.92
2019-03-28T21:12:07.735Z,97571.75
2019-03-28T21:14:41.705Z,97572.13
2019-03-28T21:17:14.650Z,97574.05
2019-03-28T21:19:47.805Z,97569.77
2019-03-28T21:22:20.771Z,97574.48
2019-03-28T21:24:56.202Z,97577.87
2019-03-28T21:27:30.894Z,97583.06
2019-03-28T21:30:04.084Z,97576.06
2019-03-28T21:32:38.244Z,97582.47
2019-03-28T21:35:14.497Z,97576.84
2019-03-28T21:37:48.784Z,97576.64
2019-03-28T21:40:21.786Z,97577.72
2019-03-28T21:42:54.725Z,97581.70
2019-03-28T21:45:27.905Z,97581.41
2019-03-28T21:48:01.877Z,97578.81
2019-03-28T21:50:34.853Z,97588.22
2019-03-28T21:53:11.819Z,97581.31
2019-03-28T21:55:55.184Z,97589.17
2019-03-28T21:58:23.086Z,97592.20
2019-03-28T22:00:56.023Z,97591.34
2019-03-28T22:03:28.157Z,97589.73
2019-03-28T22:06:02.567Z,97582.17
2019-03-28T22:08:36.892Z,97583.59
2019-03-28T22:11:09.862Z,97581.27
2019-03-28T22:13:42.856Z,97582.64
2019-03-28T22:16:17.252Z,97587.28
2019-03-28T22:18:49.027Z,97586.00
2019-03-28T22:21:23.637Z,97584.73
2019-03-28T22:23:56.240Z,97582.08
2019-03-28T22:26:28.009Z,97580.67
2019-03-28T22:29:02.147Z,97579.77
2019-03-28T22:31:35.488Z,97588.08
2019-03-28T22:34:10.172Z,97592.83
2019-03-28T22:36:57.131Z,97589.86
2019-03-28T22:42:55.227Z,97585.98
2019-03-28T22:45:26.974Z,97583.63
2019-03-28T22:48:10.566Z,97582.45
2019-03-28T22:50:38.663Z,97585.31
2019-03-28T22:53:14.737Z,97584.58
2019-03-28T22:55:49.137Z,97588.99
2019-03-28T22:58:24.819Z,97593.84
2019-03-28T23:00:59.474Z,97594.02
2019-03-28T23:03:34.361Z,97588.14
2019-03-28T23:06:07.641Z,97597.30
2019-03-28T23:08:40.232Z,97596.03
2019-03-28T23:11:13.938Z,97596.22
2019-03-28T23:13:46.492Z,97597.12
2019-03-28T23:16:19.185Z,97602.75
2019-03-28T23:18:52.598Z,97606.95
2019-03-28T23:21:24.973Z,97604.39
2019-03-28T23:23:58.269Z,97603.59
2019-03-28T23:26:31.291Z,97604.39
2019-03-28T23:29:04.269Z,97607.86
2019-03-28T23:31:38.320Z,97599.61
2019-03-28T23:34:10.944Z,97600.89
2019-03-28T23:36:43.895Z,97602.16
2019-03-28T23:39:16.561Z,97598.26
2019-03-28T23:41:50.001Z,97602.02
2019-03-28T23:44:23.311Z,97606.50
2019-03-28T23:46:55.269Z,97609.83
2019-03-28T23:49:28.636Z,97598.11
2019-03-28T23:52:02.410Z,97599.75
2019-03-28T23:54:35.645Z,97603.98
2019-03-28T23:57:10.340Z,97606.39
2019-03-28T23:59:42.842Z,97608.69
